createdAt,value
2022-08-17T00:02:16.993Z,30.38
2022-08-17T00:04:58.150Z,31.88
2022-08-17T00:07:45.069Z,31.77
2022-08-17T00:10:18.124Z,32.72
2022-08-17T00:13:05.080Z,32.47
2022-08-17T00:15:38.163Z,31.95
2022-08-17T00:18:58.185Z,31.50
2022-08-17T00:21:26.061Z,31.33
2022-08-17T00:24:27.105Z,30.50
2022-08-17T00:27:07.090Z,34.17
2022-08-17T00:29:40.184Z,32.35
2022-08-17T00:33:14.162Z,30.40
2022-08-17T00:35:31.071Z,32.03
2022-08-17T00:38:19.094Z,31.33
2022-08-17T00:40:59.235Z,30.05
2022-08-17T00:43:51.091Z,32.30
2022-08-17T00:46:31.191Z,30.80
2022-08-17T00:49:20.107Z,31.00
2022-08-17T00:52:04.396Z,32.88
2022-08-17T00:55:01.085Z,32.20
2022-08-17T00:57:55.186Z,32.08
2022-08-17T01:00:49.184Z,31.83
2022-08-17T01:03:37.128Z,31.65
2022-08-17T01:06:25.115Z,31.85
2022-08-17T01:09:00.191Z,31.45
2022-08-17T01:11:57.131Z,32.35
2022-08-17T01:14:52.103Z,32.60
2022-08-17T01:17:40.112Z,31.70
2022-08-17T01:20:14.184Z,31.27
2022-08-17T01:23:01.126Z,32.65
2022-08-17T01:25:43.128Z,32.40
2022-08-17T01:28:54.509Z,31.45
2022-08-17T01:31:38.116Z,32.30
2022-08-17T01:34:25.115Z,31.90
2022-08-17T01:37:13.253Z,29.95
2022-08-17T01:40:09.173Z,30.45
2022-08-17T01:42:58.146Z,33.47
2022-08-17T01:45:45.356Z,31.45
2022-08-17T01:48:32.142Z,31.85
2022-08-17T01:51:07.572Z,31.23
2022-08-17T01:53:58.117Z,32.20
2022-08-17T01:56:34.107Z,30.92
2022-08-17T01:59:21.115Z,31.45
2022-08-17T02:01:54.520Z,32.08
2022-08-17T02:04:41.120Z,31.90
2022-08-17T02:07:21.123Z,30.65
2022-08-17T02:10:20.099Z,31.85
2022-08-17T02:13:15.128Z,32.38
2022-08-17T02:16:04.213Z,31.42
2022-08-17T02:18:37.220Z,32.17
2022-08-17T02:21:24.148Z,31.55
2022-08-17T02:23:57.397Z,30.27
2022-08-17T02:26:44.146Z,32.22
2022-08-17T02:29:17.224Z,30.60
2022-08-17T02:32:05.166Z,32.50
2022-08-17T02:34:39.229Z,31.75
2022-08-17T02:37:26.155Z,31.98
2022-08-17T02:39:59.574Z,31.15
2022-08-17T02:42:48.264Z,31.52
2022-08-17T02:45:32.168Z,32.72
2022-08-17T02:48:30.837Z,32.20
2022-08-17T02:51:06.245Z,32.70
2022-08-17T02:53:53.186Z,33.10
2022-08-17T02:56:53.159Z,30.85
2022-08-17T02:59:49.110Z,30.42
2022-08-17T03:02:43.175Z,30.30
2022-08-17T03:05:39.174Z,33.25
2022-08-17T03:08:27.173Z,29.60
2022-08-17T03:11:00.494Z,32.65
2022-08-17T03:13:47.183Z,32.05
2022-08-17T03:16:20.243Z,29.48
2022-08-17T03:19:07.173Z,31.08
2022-08-17T03:21:40.237Z,30.67
2022-08-17T03:24:28.791Z,31.27
2022-08-17T03:27:02.274Z,29.63
2022-08-17T03:29:49.182Z,29.85
2022-08-17T03:32:23.259Z,30.15
2022-08-17T03:35:10.179Z,29.27
2022-08-17T03:37:47.255Z,29.98
2022-08-17T03:40:58.651Z,27.80
2022-08-17T03:43:42.186Z,30.27
2022-08-17T03:46:55.185Z,30.73
2022-08-17T03:50:00.199Z,29.80
2022-08-17T03:52:51.936Z,28.27
2022-08-17T03:55:57.189Z,27.50
2022-08-17T03:58:45.202Z,30.48
2022-08-17T04:01:39.257Z,28.98
2022-08-17T04:04:33.205Z,28.70
2022-08-17T04:07:20.215Z,29.77
2022-08-17T04:09:53.271Z,30.55
2022-08-17T04:12:59.212Z,30.23
2022-08-17T04:15:33.620Z,28.25
2022-08-17T04:18:20.219Z,31.25
2022-08-17T04:21:00.195Z,31.05
2022-08-17T04:23:54.205Z,31.77
2022-08-17T04:26:53.992Z,32.00
2022-08-17T04:29:28.312Z,30.80
2022-08-17T04:33:00.649Z,31.92
2022-08-17T04:35:38.224Z,32.42
2022-08-17T04:38:35.222Z,34.15
2022-08-17T04:41:41.219Z,31.30
2022-08-17T04:44:28.339Z,36.90
2022-08-17T04:47:31.226Z,35.67
2022-08-17T04:50:18.229Z,31.35
2022-08-17T04:53:00.643Z,31.30
2022-08-17T04:55:47.225Z,38.53
2022-08-17T04:58:20.421Z,31.83
2022-08-17T05:01:08.321Z,34.25
2022-08-17T05:03:41.942Z,31.48
2022-08-17T05:06:29.229Z,35.08
2022-08-17T05:09:11.235Z,32.53
2022-08-17T05:12:05.235Z,33.97
2022-08-17T05:14:52.231Z,32.88
2022-08-17T05:17:25.343Z,30.60
2022-08-17T05:20:12.238Z,29.63
2022-08-17T05:23:04.273Z,30.33
2022-08-17T05:26:03.231Z,28.08
2022-08-17T05:28:53.234Z,29.17
2022-08-17T05:31:27.344Z,30.05
2022-08-17T05:34:14.235Z,28.92
2022-08-17T05:36:54.267Z,29.77
2022-08-17T05:39:48.340Z,27.48
2022-08-17T05:42:42.352Z,27.58
2022-08-17T05:45:55.931Z,28.95
2022-08-17T05:48:50.245Z,29.45
2022-08-17T05:51:29.405Z,28.52
2022-08-17T05:54:18.251Z,30.33
2022-08-17T05:57:20.963Z,27.10
2022-08-17T06:00:31.366Z,26.27
2022-08-17T06:03:46.346Z,26.42
2022-08-17T06:06:46.275Z,28.35
2022-08-17T06:09:52.290Z,25.15
2022-08-17T06:13:10.259Z,29.38
2022-08-17T06:16:34.035Z,29.13
2022-08-17T06:19:34.285Z,28.85
2022-08-17T06:22:09.388Z,29.77
2022-08-17T06:25:04.277Z,29.13
2022-08-17T06:27:53.995Z,29.33
2022-08-17T06:31:03.284Z,27.75
2022-08-17T06:33:46.287Z,28.88
2022-08-17T06:36:51.295Z,29.77
2022-08-17T06:40:03.323Z,29.88
2022-08-17T06:43:22.298Z,30.02
2022-08-17T06:46:43.289Z,28.17
2022-08-17T06:49:41.315Z,28.15
2022-08-17T06:52:56.057Z,29.23
2022-08-17T06:55:48.311Z,28.05
2022-08-17T06:58:38.916Z,30.33
2022-08-17T07:01:32.515Z,29.90
2022-08-17T07:04:37.297Z,31.98
2022-08-17T07:07:40.312Z,30.65
2022-08-17T07:10:35.312Z,25.35
2022-08-17T07:13:41.323Z,29.10
2022-08-17T07:16:57.333Z,28.23
2022-08-17T07:19:54.312Z,26.15
2022-08-17T07:23:05.315Z,28.38
2022-08-17T07:25:46.322Z,27.45
2022-08-17T07:28:35.309Z,28.63
2022-08-17T07:31:20.321Z,31.42
2022-08-17T07:34:17.326Z,32.38
2022-08-17T07:36:53.671Z,27.67
2022-08-17T07:40:14.792Z,28.25
2022-08-17T07:42:34.372Z,26.73
2022-08-17T07:45:41.316Z,26.08
2022-08-17T07:48:27.324Z,27.40
2022-08-17T07:51:32.320Z,29.40
2022-08-17T07:54:29.340Z,25.33
2022-08-17T07:57:25.431Z,25.42
2022-08-17T08:00:16.627Z,26.77
2022-08-17T08:03:28.688Z,26.77
2022-08-17T08:06:12.368Z,24.27
2022-08-17T08:09:09.361Z,25.98
2022-08-17T08:12:03.324Z,25.45
2022-08-17T08:14:46.364Z,24.35
2022-08-17T08:17:38.335Z,25.83
2022-08-17T08:20:52.145Z,24.38
2022-08-17T08:24:01.338Z,24.65
2022-08-17T08:27:19.351Z,23.45
2022-08-17T08:30:21.356Z,23.45
2022-08-17T08:33:14.374Z,25.27
2022-08-17T08:36:59.303Z,25.42
2022-08-17T08:39:29.489Z,25.15
2022-08-17T08:42:43.358Z,24.73
2022-08-17T08:45:51.368Z,24.33
2022-08-17T08:49:12.678Z,24.63
2022-08-17T08:52:13.380Z,25.20
2022-08-17T08:55:11.379Z,24.02
2022-08-17T08:57:57.420Z,25.13
2022-08-17T09:00:57.403Z,24.77
2022-08-17T09:04:29.415Z,24.75
2022-08-17T09:07:17.449Z,23.30
2022-08-17T09:10:32.372Z,24.55
2022-08-17T09:13:13.390Z,22.05
2022-08-17T09:16:07.386Z,25.80
2022-08-17T09:19:00.122Z,23.98
2022-08-17T09:21:59.399Z,26.60
2022-08-17T09:24:53.406Z,22.65
2022-08-17T09:28:04.629Z,21.23
2022-08-17T09:30:56.406Z,22.98
2022-08-17T09:33:33.480Z,26.58
2022-08-17T09:36:36.384Z,26.08
2022-08-17T09:39:22.428Z,24.13
2022-08-17T09:42:31.396Z,23.13
2022-08-17T09:45:28.417Z,26.90
2022-08-17T09:48:19.540Z,26.10
2022-08-17T09:51:21.430Z,25.65
2022-08-17T09:54:21.350Z,24.65
2022-08-17T09:57:31.030Z,26.50
2022-08-17T10:00:29.410Z,24.15
2022-08-17T10:03:39.444Z,25.25
2022-08-17T10:06:40.461Z,25.02
2022-08-17T10:09:44.428Z,23.65
2022-08-17T10:12:38.433Z,25.33
2022-08-17T10:15:43.417Z,24.98
2022-08-17T10:18:52.426Z,25.67
2022-08-17T10:22:14.540Z,27.65
2022-08-17T10:25:54.094Z,25.77
2022-08-17T10:28:40.438Z,26.98
2022-08-17T10:31:35.668Z,28.05
2022-08-17T10:34:41.826Z,28.75
2022-08-17T10:37:50.617Z,27.70
2022-08-17T10:40:51.548Z,26.80
2022-08-17T10:44:39.608Z,28.27
2022-08-17T10:47:21.443Z,28.88
2022-08-17T10:50:46.443Z,28.10
2022-08-17T10:53:46.439Z,26.42
2022-08-17T10:56:51.458Z,27.45
2022-08-17T11:00:02.530Z,28.20
2022-08-17T11:03:00.475Z,29.10
2022-08-17T11:05:43.532Z,28.98
2022-08-17T11:08:47.469Z,28.10
2022-08-17T11:11:36.080Z,28.27
2022-08-17T11:14:40.485Z,30.10
2022-08-17T11:17:26.464Z,28.70
2022-08-17T11:20:54.475Z,26.55
2022-08-17T11:23:59.474Z,26.75
2022-08-17T11:26:37.632Z,26.70
2022-08-17T11:29:31.479Z,26.20
2022-08-17T11:32:13.580Z,27.58
2022-08-17T11:35:33.500Z,25.58
2022-08-17T11:38:16.945Z,24.95
2022-08-17T11:41:14.514Z,25.33
2022-08-17T11:44:12.494Z,27.23
2022-08-17T11:47:42.498Z,27.23
2022-08-17T11:50:56.500Z,26.02
2022-08-17T11:53:43.520Z,27.77
2022-08-17T11:56:38.287Z,27.58
2022-08-17T11:59:39.472Z,26.08
2022-08-17T12:02:35.033Z,27.58
2022-08-17T12:05:21.484Z,25.88
2022-08-17T12:07:58.587Z,24.63
2022-08-17T12:11:15.543Z,27.98
2022-08-17T12:14:17.780Z,26.08
2022-08-17T12:17:13.491Z,23.00
2022-08-17T12:20:03.543Z,26.08
2022-08-17T12:23:12.570Z,24.90
2022-08-17T12:26:03.510Z,26.33
2022-08-17T12:28:47.516Z,26.05
2022-08-17T12:31:42.519Z,27.02
2022-08-17T12:34:28.510Z,26.48
2022-08-17T12:37:40.523Z,26.80
2022-08-17T12:40:33.528Z,27.65
2022-08-17T12:43:34.543Z,25.77
2022-08-17T12:46:13.004Z,27.67
2022-08-17T12:49:17.520Z,25.33
2022-08-17T12:51:53.595Z,27.58
2022-08-17T12:54:47.538Z,26.33
2022-08-17T12:57:40.672Z,28.83
2022-08-17T13:00:37.527Z,26.38
2022-08-17T13:03:34.296Z,26.38
2022-08-17T13:06:39.547Z,28.98
2022-08-17T13:09:19.623Z,28.75
2022-08-17T13:12:13.552Z,29.50
2022-08-17T13:15:07.537Z,26.10
2022-08-17T13:18:14.531Z,28.35
2022-08-17T13:21:05.546Z,26.08
2022-08-17T13:23:39.687Z,26.88
2022-08-17T13:26:38.588Z,26.98
2022-08-17T13:29:14.651Z,27.45
2022-08-17T13:32:13.929Z,25.52
2022-08-17T13:35:14.219Z,30.00
2022-08-17T13:38:12.568Z,25.48
2022-08-17T13:40:59.562Z,28.65
2022-08-17T13:43:53.630Z,28.35
2022-08-17T13:46:40.570Z,26.67
2022-08-17T13:49:17.880Z,27.83
2022-08-17T13:52:04.618Z,31.40
2022-08-17T13:54:44.655Z,27.85
2022-08-17T13:57:32.588Z,29.23
2022-08-17T14:00:36.596Z,28.48
2022-08-17T14:03:23.581Z,29.98
2022-08-17T14:06:05.598Z,28.17
2022-08-17T14:08:52.570Z,24.88
2022-08-17T14:11:26.667Z,25.35
2022-08-17T14:14:13.577Z,26.73
2022-08-17T14:16:48.456Z,30.52
2022-08-17T14:19:35.611Z,27.85
2022-08-17T14:22:09.780Z,30.58
2022-08-17T14:24:57.618Z,28.60
2022-08-17T14:27:34.048Z,28.92
2022-08-17T14:30:33.615Z,28.60
2022-08-17T14:33:14.605Z,28.63
2022-08-17T14:36:08.586Z,28.02
2022-08-17T14:39:02.607Z,28.25
2022-08-17T14:41:49.592Z,29.88
2022-08-17T14:44:22.759Z,29.23
2022-08-17T14:47:10.621Z,27.08
2022-08-17T14:49:43.812Z,30.02
2022-08-17T14:52:35.636Z,28.08
2022-08-17T14:55:15.597Z,26.65
2022-08-17T14:58:02.606Z,27.40
2022-08-17T15:00:35.685Z,27.38
2022-08-17T15:03:22.617Z,26.75
2022-08-17T15:05:56.840Z,25.38
2022-08-17T15:08:43.618Z,28.08
2022-08-17T15:11:18.827Z,28.88
2022-08-17T15:14:05.656Z,25.65
2022-08-17T15:16:46.630Z,26.80
2022-08-17T15:19:40.628Z,26.83
2022-08-17T15:22:37.634Z,25.25
2022-08-17T15:25:25.615Z,25.85
2022-08-17T15:27:59.906Z,25.73
2022-08-17T15:30:49.661Z,26.50
2022-08-17T15:33:29.353Z,29.27
2022-08-17T15:36:15.656Z,24.77
2022-08-17T15:38:55.657Z,25.27
2022-08-17T15:41:58.548Z,25.33
2022-08-17T15:44:53.638Z,23.90
2022-08-17T15:47:47.632Z,26.20
2022-08-17T15:50:41.636Z,25.52
2022-08-17T15:53:35.632Z,26.20
2022-08-17T15:56:23.644Z,26.60
2022-08-17T15:59:03.659Z,27.38
2022-08-17T16:03:13.738Z,26.60
2022-08-17T16:05:27.702Z,24.73
2022-08-17T16:08:20.048Z,25.65
2022-08-17T16:10:55.739Z,25.98
2022-08-17T16:13:42.648Z,27.30
2022-08-17T16:16:29.016Z,24.67
2022-08-17T16:19:15.675Z,26.30
2022-08-17T16:21:55.691Z,26.45
2022-08-17T16:24:56.785Z,25.42
2022-08-17T16:27:37.709Z,28.23
2022-08-17T16:30:31.674Z,25.75
2022-08-17T16:33:25.660Z,26.00
2022-08-17T16:36:14.673Z,26.23
2022-08-17T16:38:47.807Z,24.10
2022-08-17T16:41:51.700Z,27.38
2022-08-17T16:44:36.673Z,27.48
2022-08-17T16:47:30.705Z,26.02
2022-08-17T16:50:20.703Z,26.67
2022-08-17T16:52:54.766Z,26.02
2022-08-17T16:55:42.679Z,25.27
2022-08-17T16:58:22.701Z,27.98
2022-08-17T17:01:16.721Z,27.77
2022-08-17T17:04:15.682Z,29.40
2022-08-17T17:07:13.696Z,27.65
2022-08-17T17:09:52.579Z,29.20
2022-08-17T17:13:03.310Z,28.45
2022-08-17T17:16:27.714Z,29.27
2022-08-17T17:19:34.318Z,27.48
2022-08-17T17:22:22.705Z,29.38
2022-08-17T17:25:25.707Z,28.63
2022-08-17T17:28:34.709Z,27.05
2022-08-17T17:31:30.710Z,26.77
2022-08-17T17:34:08.821Z,29.75
2022-08-17T17:37:02.702Z,29.83
2022-08-17T17:39:44.839Z,28.60
2022-08-17T17:42:37.712Z,31.83
2022-08-17T17:45:23.944Z,34.40
2022-08-17T17:48:10.758Z,32.50
2022-08-17T17:51:05.865Z,32.83
2022-08-17T17:54:02.798Z,33.22
2022-08-17T17:56:59.887Z,31.65
2022-08-17T17:59:49.748Z,30.23
2022-08-17T18:02:53.261Z,32.15
2022-08-17T18:05:44.780Z,34.60
2022-08-17T18:08:36.723Z,31.67
2022-08-17T18:11:35.266Z,35.03
2022-08-17T18:14:17.876Z,40.47
2022-08-17T18:17:06.738Z,29.67
2022-08-17T18:19:39.998Z,33.58
2022-08-17T18:22:27.754Z,29.75
2022-08-17T18:25:01.825Z,30.92
2022-08-17T18:27:57.753Z,31.75
2022-08-17T18:30:40.751Z,30.58
2022-08-17T18:33:37.764Z,27.52
2022-08-17T18:36:40.747Z,30.15
2022-08-17T18:39:31.953Z,30.80
2022-08-17T18:42:32.732Z,30.60
2022-08-17T18:45:05.871Z,31.50
2022-08-17T18:48:01.763Z,31.33
2022-08-17T18:50:53.394Z,31.38
2022-08-17T18:53:49.789Z,31.00
2022-08-17T18:56:46.755Z,29.90
2022-08-17T18:59:45.778Z,31.95
2022-08-17T19:02:31.418Z,31.70
2022-08-17T19:05:27.778Z,28.77
2022-08-17T19:08:07.766Z,30.30
2022-08-17T19:11:23.772Z,31.45
2022-08-17T19:14:23.773Z,30.52
2022-08-17T19:17:27.785Z,30.77
2022-08-17T19:20:25.782Z,30.45
2022-08-17T19:23:27.791Z,32.40
2022-08-17T19:26:54.647Z,29.75
2022-08-17T19:29:52.795Z,29.83
2022-08-17T19:32:48.779Z,31.45
2022-08-17T19:36:16.783Z,30.13
2022-08-17T19:39:26.342Z,29.95
2022-08-17T19:42:53.796Z,30.40
2022-08-17T19:46:02.801Z,30.38
2022-08-17T19:49:01.810Z,31.15
2022-08-17T19:52:07.806Z,30.35
2022-08-17T19:55:12.591Z,31.20
2022-08-17T19:58:09.821Z,32.35
2022-08-17T20:00:58.830Z,34.00
2022-08-17T20:04:05.826Z,31.45
2022-08-17T20:07:01.799Z,30.70
2022-08-17T20:10:06.819Z,32.03
2022-08-17T20:13:05.850Z,30.73
2022-08-17T20:15:52.820Z,29.92
2022-08-17T20:18:57.821Z,30.08
2022-08-17T20:22:13.816Z,30.88
2022-08-17T20:25:30.026Z,33.03
2022-08-17T20:28:41.824Z,30.95
2022-08-17T20:31:52.833Z,32.15
2022-08-17T20:34:39.729Z,30.40
2022-08-17T20:37:33.810Z,33.15
2022-08-17T20:40:09.749Z,29.05
2022-08-17T20:42:56.832Z,30.10
2022-08-17T20:45:30.020Z,31.08
2022-08-17T20:48:37.408Z,30.75
2022-08-17T20:51:23.919Z,29.50
2022-08-17T20:54:24.833Z,32.15
2022-08-17T20:57:14.167Z,30.92
2022-08-17T21:00:13.860Z,30.20
2022-08-17T21:03:43.143Z,31.08
2022-08-17T21:06:45.869Z,30.88
2022-08-17T21:09:43.841Z,28.95
2022-08-17T21:12:59.843Z,31.88
2022-08-17T21:16:02.853Z,32.15
2022-08-17T21:19:22.155Z,30.33
2022-08-17T21:22:52.858Z,32.15
2022-08-17T21:25:58.837Z,32.42
2022-08-17T21:29:00.370Z,30.45
2022-08-17T21:32:00.503Z,31.27
2022-08-17T21:34:49.869Z,31.85
2022-08-17T21:37:29.667Z,31.20
2022-08-17T21:40:16.962Z,32.55
2022-08-17T21:43:06.856Z,30.23
2022-08-17T21:46:11.875Z,32.58
2022-08-17T21:48:57.866Z,33.58
2022-08-17T21:51:51.866Z,32.83
2022-08-17T21:54:44.521Z,30.83
2022-08-17T21:57:34.862Z,33.30
2022-08-17T22:00:24.886Z,31.48
2022-08-17T22:03:26.871Z,34.60
2022-08-17T22:06:06.900Z,33.05
2022-08-17T22:09:15.877Z,32.60
2022-08-17T22:12:03.857Z,30.92
2022-08-17T22:14:52.089Z,32.03
2022-08-17T22:17:52.147Z,33.35
2022-08-17T22:20:26.965Z,33.35
2022-08-17T22:23:37.886Z,34.55
2022-08-17T22:26:14.008Z,31.38
2022-08-17T22:29:03.904Z,31.13
2022-08-17T22:32:01.002Z,32.03
2022-08-17T22:34:47.914Z,32.83
2022-08-17T22:37:33.978Z,32.55
2022-08-17T22:40:32.910Z,30.70
2022-08-17T22:43:08.981Z,32.67
2022-08-17T22:46:01.919Z,32.83
2022-08-17T22:48:42.898Z,33.33
2022-08-17T22:51:34.917Z,33.22
2022-08-17T22:54:43.897Z,31.55
2022-08-17T22:57:56.927Z,32.08
2022-08-17T23:00:57.914Z,32.17
2022-08-17T23:04:00.908Z,32.88
2022-08-17T23:06:41.917Z,32.00
2022-08-17T23:09:28.915Z,32.85
2022-08-17T23:12:03.020Z,33.92
2022-08-17T23:14:57.917Z,31.10
2022-08-17T23:17:52.091Z,33.53
2022-08-17T23:20:41.916Z,32.67
2022-08-17T23:23:23.801Z,33.22
2022-08-17T23:26:10.932Z,34.15
2022-08-17T23:28:51.922Z,34.13
2022-08-17T23:31:46.933Z,32.60
2022-08-17T23:34:34.927Z,31.23
2022-08-17T23:37:08.097Z,32.65
2022-08-17T23:39:54.977Z,31.65
2022-08-17T23:42:28.075Z,32.33
2022-08-17T23:45:14.951Z,34.88
2022-08-17T23:47:48.039Z,32.65
2022-08-17T23:50:34.935Z,32.53
2022-08-17T23:53:14.961Z,31.17
2022-08-17T23:56:09.857Z,32.90
2022-08-17T23:58:46.312Z,31.95
